sensor_id;sensor_type;location;lat;lon;timestamp;P1;durP1;ratioP1;P2;durP2;ratioP2
62798;SDS011;48842;51.046;13.796;2022-10-12T00:00:31;6.80;;;3.87;;
62798;SDS011;48842;51.046;13.796;2022-10-12T00:02:57;9.90;;;4.23;;
62798;SDS011;48842;51.046;13.796;2022-10-12T00:05:22;14.97;;;4.80;;
62798;SDS011;48842;51.046;13.796;2022-10-12T00:07:47;6.67;;;4.10;;
62798;SDS011;48842;51.046;13.796;2022-10-12T00:10:12;14.30;;;4.90;;
62798;SDS011;48842;51.046;13.796;2022-10-12T00:12:38;17.13;;;3.70;;
62798;SDS011;48842;51.046;13.796;2022-10-12T00:15:03;5.83;;;4.20;;
62798;SDS011;48842;51.046;13.796;2022-10-12T00:17:29;13.73;;;4.00;;
62798;SDS011;48842;51.046;13.796;2022-10-12T00:19:54;12.13;;;4.33;;
62798;SDS011;48842;51.046;13.796;2022-10-12T00:22:19;5.40;;;3.73;;
62798;SDS011;48842;51.046;13.796;2022-10-12T00:24:45;11.70;;;4.90;;
62798;SDS011;48842;51.046;13.796;2022-10-12T00:27:11;6.00;;;4.27;;
62798;SDS011;48842;51.046;13.796;2022-10-12T00:29:36;6.33;;;4.07;;
62798;SDS011;48842;51.046;13.796;2022-10-12T00:32:01;7.10;;;4.10;;
62798;SDS011;48842;51.046;13.796;2022-10-12T00:34:27;7.67;;;3.53;;
62798;SDS011;48842;51.046;13.796;2022-10-12T00:36:52;11.40;;;4.70;;
62798;SDS011;48842;51.046;13.796;2022-10-12T00:39:19;6.87;;;4.20;;
62798;SDS011;48842;51.046;13.796;2022-10-12T00:41:45;8.97;;;3.83;;
62798;SDS011;48842;51.046;13.796;2022-10-12T00:44:32;11.67;;;5.13;;
62798;SDS011;48842;51.046;13.796;2022-10-12T00:46:58;9.53;;;4.30;;
62798;SDS011;48842;51.046;13.796;2022-10-12T00:49:24;12.63;;;4.50;;
62798;SDS011;48842;51.046;13.796;2022-10-12T00:51:51;8.77;;;4.03;;
62798;SDS011;48842;51.046;13.796;2022-10-12T00:54:21;13.33;;;5.40;;
62798;SDS011;48842;51.046;13.796;2022-10-12T00:56:51;7.33;;;4.20;;
62798;SDS011;48842;51.046;13.796;2022-10-12T00:59:18;16.23;;;4.60;;
62798;SDS011;48842;51.046;13.796;2022-10-12T01:01:50;7.13;;;4.47;;
62798;SDS011;48842;51.046;13.796;2022-10-12T01:04:15;8.57;;;4.83;;
62798;SDS011;48842;51.046;13.796;2022-10-12T01:06:41;9.50;;;4.40;;
62798;SDS011;48842;51.046;13.796;2022-10-12T01:09:06;11.20;;;4.67;;
62798;SDS011;48842;51.046;13.796;2022-10-12T01:11:32;9.93;;;4.50;;
62798;SDS011;48842;51.046;13.796;2022-10-12T01:13:57;10.73;;;5.37;;
62798;SDS011;48842;51.046;13.796;2022-10-12T01:16:43;12.37;;;6.03;;
62798;SDS011;48842;51.046;13.796;2022-10-12T01:22:13;13.07;;;4.87;;
62798;SDS011;48842;51.046;13.796;2022-10-12T01:27:35;11.13;;;4.73;;
62798;SDS011;48842;51.046;13.796;2022-10-12T01:30:06;9.10;;;4.90;;
62798;SDS011;48842;51.046;13.796;2022-10-12T01:38:12;7.97;;;4.53;;
62798;SDS011;48842;51.046;13.796;2022-10-12T01:40:44;12.53;;;5.40;;
62798;SDS011;48842;51.046;13.796;2022-10-12T01:43:15;17.70;;;4.90;;
62798;SDS011;48842;51.046;13.796;2022-10-12T01:45:42;14.40;;;6.10;;
62798;SDS011;48842;51.046;13.796;2022-10-12T01:48:07;14.20;;;5.60;;
62798;SDS011;48842;51.046;13.796;2022-10-12T01:50:36;9.33;;;5.80;;
62798;SDS011;48842;51.046;13.796;2022-10-12T01:53:16;8.53;;;5.20;;
62798;SDS011;48842;51.046;13.796;2022-10-12T02:01:56;7.50;;;4.20;;
62798;SDS011;48842;51.046;13.796;2022-10-12T02:04:52;7.30;;;5.30;;
62798;SDS011;48842;51.046;13.796;2022-10-12T02:07:30;13.23;;;5.80;;
62798;SDS011;48842;51.046;13.796;2022-10-12T02:10:08;9.07;;;4.60;;
62798;SDS011;48842;51.046;13.796;2022-10-12T02:12:39;11.53;;;5.57;;
62798;SDS011;48842;51.046;13.796;2022-10-12T02:15:07;15.27;;;5.37;;
62798;SDS011;48842;51.046;13.796;2022-10-12T02:17:35;16.40;;;5.93;;
62798;SDS011;48842;51.046;13.796;2022-10-12T02:20:03;10.13;;;5.10;;
62798;SDS011;48842;51.046;13.796;2022-10-12T02:22:33;9.23;;;5.70;;
62798;SDS011;48842;51.046;13.796;2022-10-12T02:25:01;9.80;;;5.97;;
62798;SDS011;48842;51.046;13.796;2022-10-12T02:27:31;8.97;;;4.80;;
62798;SDS011;48842;51.046;13.796;2022-10-12T02:29:59;7.90;;;5.20;;
62798;SDS011;48842;51.046;13.796;2022-10-12T02:32:27;8.30;;;5.87;;
62798;SDS011;48842;51.046;13.796;2022-10-12T02:35:08;8.90;;;5.03;;
62798;SDS011;48842;51.046;13.796;2022-10-12T02:37:42;9.10;;;5.20;;
62798;SDS011;48842;51.046;13.796;2022-10-12T02:40:12;11.10;;;5.20;;
62798;SDS011;48842;51.046;13.796;2022-10-12T02:42:47;11.10;;;5.10;;
62798;SDS011;48842;51.046;13.796;2022-10-12T02:45:15;13.17;;;5.73;;
62798;SDS011;48842;51.046;13.796;2022-10-12T02:47:43;11.03;;;4.53;;
62798;SDS011;48842;51.046;13.796;2022-10-12T02:50:11;12.53;;;5.57;;
62798;SDS011;48842;51.046;13.796;2022-10-12T02:52:38;7.67;;;5.00;;
62798;SDS011;48842;51.046;13.796;2022-10-12T02:55:03;13.10;;;6.50;;
62798;SDS011;48842;51.046;13.796;2022-10-12T02:57:29;6.97;;;4.50;;
62798;SDS011;48842;51.046;13.796;2022-10-12T02:59:55;7.73;;;4.30;;
62798;SDS011;48842;51.046;13.796;2022-10-12T03:02:21;9.67;;;5.53;;
62798;SDS011;48842;51.046;13.796;2022-10-12T03:04:46;15.03;;;5.60;;
62798;SDS011;48842;51.046;13.796;2022-10-12T03:07:11;7.70;;;4.73;;
62798;SDS011;48842;51.046;13.796;2022-10-12T03:09:36;7.80;;;5.00;;
62798;SDS011;48842;51.046;13.796;2022-10-12T03:12:02;11.57;;;4.70;;
62798;SDS011;48842;51.046;13.796;2022-10-12T03:14:27;8.00;;;5.07;;
62798;SDS011;48842;51.046;13.796;2022-10-12T03:16:52;10.53;;;5.10;;
62798;SDS011;48842;51.046;13.796;2022-10-12T03:19:18;7.00;;;4.43;;
62798;SDS011;48842;51.046;13.796;2022-10-12T03:21:43;12.63;;;5.23;;
62798;SDS011;48842;51.046;13.796;2022-10-12T03:24:08;12.43;;;4.77;;
62798;SDS011;48842;51.046;13.796;2022-10-12T03:26:33;10.30;;;5.20;;
62798;SDS011;48842;51.046;13.796;2022-10-12T03:28:59;8.10;;;5.90;;
62798;SDS011;48842;51.046;13.796;2022-10-12T03:31:24;11.03;;;5.37;;
62798;SDS011;48842;51.046;13.796;2022-10-12T03:33:49;16.67;;;5.70;;
62798;SDS011;48842;51.046;13.796;2022-10-12T03:36:15;9.83;;;4.80;;
62798;SDS011;48842;51.046;13.796;2022-10-12T03:38:40;14.97;;;5.83;;
62798;SDS011;48842;51.046;13.796;2022-10-12T03:41:05;11.27;;;5.97;;
62798;SDS011;48842;51.046;13.796;2022-10-12T03:43:30;10.10;;;5.50;;
62798;SDS011;48842;51.046;13.796;2022-10-12T03:45:56;9.03;;;5.53;;
62798;SDS011;48842;51.046;13.796;2022-10-12T03:48:21;9.20;;;5.60;;
62798;SDS011;48842;51.046;13.796;2022-10-12T03:50:47;7.27;;;5.47;;
62798;SDS011;48842;51.046;13.796;2022-10-12T03:53:14;10.50;;;5.63;;
62798;SDS011;48842;51.046;13.796;2022-10-12T03:55:39;10.53;;;5.47;;
62798;SDS011;48842;51.046;13.796;2022-10-12T03:58:04;10.93;;;4.90;;
62798;SDS011;48842;51.046;13.796;2022-10-12T04:00:30;12.03;;;4.70;;
62798;SDS011;48842;51.046;13.796;2022-10-12T04:02:55;15.67;;;5.33;;
62798;SDS011;48842;51.046;13.796;2022-10-12T04:05:21;12.03;;;6.80;;
62798;SDS011;48842;51.046;13.796;2022-10-12T04:07:46;11.50;;;5.70;;
62798;SDS011;48842;51.046;13.796;2022-10-12T04:10:12;11.37;;;6.60;;
62798;SDS011;48842;51.046;13.796;2022-10-12T04:12:37;11.43;;;5.87;;
62798;SDS011;48842;51.046;13.796;2022-10-12T04:15:02;19.67;;;6.80;;
62798;SDS011;48842;51.046;13.796;2022-10-12T04:17:28;8.33;;;5.33;;
62798;SDS011;48842;51.046;13.796;2022-10-12T04:19:53;11.47;;;6.03;;
62798;SDS011;48842;51.046;13.796;2022-10-12T04:22:19;20.30;;;5.50;;
62798;SDS011;48842;51.046;13.796;2022-10-12T04:24:44;6.80;;;5.20;;
62798;SDS011;48842;51.046;13.796;2022-10-12T04:27:09;15.17;;;5.73;;
62798;SDS011;48842;51.046;13.796;2022-10-12T04:29:35;7.17;;;4.60;;
62798;SDS011;48842;51.046;13.796;2022-10-12T04:32:01;10.10;;;5.87;;
62798;SDS011;48842;51.046;13.796;2022-10-12T04:34:26;8.40;;;4.87;;
62798;SDS011;48842;51.046;13.796;2022-10-12T04:36:51;12.73;;;5.40;;
62798;SDS011;48842;51.046;13.796;2022-10-12T04:39:16;6.30;;;5.23;;
62798;SDS011;48842;51.046;13.796;2022-10-12T04:41:42;9.00;;;4.90;;
62798;SDS011;48842;51.046;13.796;2022-10-12T04:44:07;11.40;;;4.90;;
62798;SDS011;48842;51.046;13.796;2022-10-12T04:46:33;18.40;;;6.07;;
62798;SDS011;48842;51.046;13.796;2022-10-12T04:48:58;9.90;;;4.70;;
62798;SDS011;48842;51.046;13.796;2022-10-12T04:51:24;11.03;;;5.40;;
62798;SDS011;48842;51.046;13.796;2022-10-12T04:53:57;14.47;;;5.80;;
62798;SDS011;48842;51.046;13.796;2022-10-12T04:56:23;8.40;;;4.90;;
62798;SDS011;48842;51.046;13.796;2022-10-12T04:58:48;14.10;;;6.07;;
62798;SDS011;48842;51.046;13.796;2022-10-12T05:01:14;13.87;;;5.57;;
62798;SDS011;48842;51.046;13.796;2022-10-12T05:03:39;12.50;;;5.20;;
62798;SDS011;48842;51.046;13.796;2022-10-12T05:06:04;9.40;;;5.23;;
62798;SDS011;48842;51.046;13.796;2022-10-12T05:08:30;8.83;;;4.70;;
62798;SDS011;48842;51.046;13.796;2022-10-12T05:10:55;7.47;;;5.00;;
62798;SDS011;48842;51.046;13.796;2022-10-12T05:13:23;9.03;;;4.70;;
62798;SDS011;48842;51.046;13.796;2022-10-12T05:15:48;11.30;;;5.13;;
62798;SDS011;48842;51.046;13.796;2022-10-12T05:18:13;9.97;;;4.77;;
62798;SDS011;48842;51.046;13.796;2022-10-12T05:20:39;7.80;;;4.70;;
62798;SDS011;48842;51.046;13.796;2022-10-12T05:23:04;12.43;;;4.87;;
62798;SDS011;48842;51.046;13.796;2022-10-12T05:25:29;6.23;;;5.07;;
62798;SDS011;48842;51.046;13.796;2022-10-12T05:27:56;7.47;;;4.80;;
62798;SDS011;48842;51.046;13.796;2022-10-12T05:30:21;15.73;;;5.90;;
62798;SDS011;48842;51.046;13.796;2022-10-12T05:32:47;6.10;;;4.00;;
62798;SDS011;48842;51.046;13.796;2022-10-12T05:35:13;9.17;;;5.47;;
62798;SDS011;48842;51.046;13.796;2022-10-12T05:37:39;10.43;;;4.63;;
62798;SDS011;48842;51.046;13.796;2022-10-12T05:40:04;7.17;;;4.53;;
62798;SDS011;48842;51.046;13.796;2022-10-12T05:42:30;10.40;;;5.60;;
62798;SDS011;48842;51.046;13.796;2022-10-12T05:44:55;10.90;;;5.10;;
62798;SDS011;48842;51.046;13.796;2022-10-12T05:47:20;11.77;;;5.40;;
62798;SDS011;48842;51.046;13.796;2022-10-12T05:49:46;9.90;;;5.33;;
62798;SDS011;48842;51.046;13.796;2022-10-12T05:52:11;6.50;;;4.37;;
62798;SDS011;48842;51.046;13.796;2022-10-12T05:54:36;22.20;;;5.90;;
62798;SDS011;48842;51.046;13.796;2022-10-12T05:57:02;9.53;;;5.20;;
62798;SDS011;48842;51.046;13.796;2022-10-12T05:59:27;7.40;;;4.63;;
62798;SDS011;48842;51.046;13.796;2022-10-12T06:01:52;13.07;;;4.80;;
62798;SDS011;48842;51.046;13.796;2022-10-12T06:04:17;9.10;;;5.53;;
62798;SDS011;48842;51.046;13.796;2022-10-12T06:06:43;17.00;;;5.67;;
62798;SDS011;48842;51.046;13.796;2022-10-12T06:09:08;12.53;;;5.33;;
62798;SDS011;48842;51.046;13.796;2022-10-12T06:11:33;7.57;;;5.07;;
62798;SDS011;48842;51.046;13.796;2022-10-12T06:13:59;8.73;;;5.23;;
62798;SDS011;48842;51.046;13.796;2022-10-12T06:16:24;20.33;;;6.20;;
62798;SDS011;48842;51.046;13.796;2022-10-12T06:18:49;12.40;;;5.10;;
62798;SDS011;48842;51.046;13.796;2022-10-12T06:21:14;9.53;;;5.43;;
62798;SDS011;48842;51.046;13.796;2022-10-12T06:23:40;20.03;;;5.73;;
62798;SDS011;48842;51.046;13.796;2022-10-12T06:26:06;14.40;;;5.27;;
62798;SDS011;48842;51.046;13.796;2022-10-12T06:28:31;9.37;;;5.60;;
62798;SDS011;48842;51.046;13.796;2022-10-12T06:30:57;14.10;;;6.00;;
62798;SDS011;48842;51.046;13.796;2022-10-12T06:33:23;10.10;;;4.87;;
62798;SDS011;48842;51.046;13.796;2022-10-12T06:35:50;9.43;;;5.40;;
62798;SDS011;48842;51.046;13.796;2022-10-12T06:38:15;14.83;;;6.20;;
62798;SDS011;48842;51.046;13.796;2022-10-12T06:40:41;13.07;;;5.57;;
62798;SDS011;48842;51.046;13.796;2022-10-12T06:43:07;10.80;;;5.10;;
62798;SDS011;48842;51.046;13.796;2022-10-12T06:45:32;10.33;;;4.53;;
62798;SDS011;48842;51.046;13.796;2022-10-12T06:47:58;16.00;;;5.27;;
62798;SDS011;48842;51.046;13.796;2022-10-12T06:50:24;7.03;;;4.60;;
62798;SDS011;48842;51.046;13.796;2022-10-12T06:52:50;16.03;;;5.33;;
62798;SDS011;48842;51.046;13.796;2022-10-12T06:55:16;9.00;;;4.33;;
62798;SDS011;48842;51.046;13.796;2022-10-12T06:57:41;14.40;;;5.43;;
62798;SDS011;48842;51.046;13.796;2022-10-12T07:00:07;16.13;;;4.30;;
62798;SDS011;48842;51.046;13.796;2022-10-12T07:02:33;11.10;;;5.00;;
62798;SDS011;48842;51.046;13.796;2022-10-12T07:04:58;7.00;;;4.53;;
62798;SDS011;48842;51.046;13.796;2022-10-12T07:07:24;12.70;;;4.70;;
62798;SDS011;48842;51.046;13.796;2022-10-12T07:09:50;11.00;;;4.53;;
62798;SDS011;48842;51.046;13.796;2022-10-12T07:12:16;8.63;;;4.27;;
62798;SDS011;48842;51.046;13.796;2022-10-12T07:14:41;7.30;;;5.40;;
62798;SDS011;48842;51.046;13.796;2022-10-12T07:17:06;11.13;;;5.03;;
62798;SDS011;48842;51.046;13.796;2022-10-12T07:19:31;9.13;;;4.50;;
62798;SDS011;48842;51.046;13.796;2022-10-12T07:21:57;10.27;;;4.53;;
62798;SDS011;48842;51.046;13.796;2022-10-12T07:24:22;15.20;;;4.93;;
62798;SDS011;48842;51.046;13.796;2022-10-12T07:26:48;10.27;;;4.60;;
62798;SDS011;48842;51.046;13.796;2022-10-12T07:29:15;9.63;;;4.07;;
62798;SDS011;48842;51.046;13.796;2022-10-12T07:31:40;12.23;;;5.10;;
62798;SDS011;48842;51.046;13.796;2022-10-12T07:34:06;13.67;;;5.63;;
62798;SDS011;48842;51.046;13.796;2022-10-12T07:36:31;11.23;;;4.10;;
62798;SDS011;48842;51.046;13.796;2022-10-12T07:38:56;10.77;;;5.10;;
62798;SDS011;48842;51.046;13.796;2022-10-12T07:41:22;6.13;;;4.20;;
62798;SDS011;48842;51.046;13.796;2022-10-12T07:43:47;14.77;;;4.23;;
62798;SDS011;48842;51.046;13.796;2022-10-12T07:46:12;7.07;;;4.23;;
62798;SDS011;48842;51.046;13.796;2022-10-12T07:48:38;7.07;;;4.20;;
62798;SDS011;48842;51.046;13.796;2022-10-12T07:51:06;8.60;;;3.97;;
62798;SDS011;48842;51.046;13.796;2022-10-12T07:53:33;6.30;;;4.77;;
62798;SDS011;48842;51.046;13.796;2022-10-12T07:55:59;13.37;;;5.70;;
62798;SDS011;48842;51.046;13.796;2022-10-12T07:58:26;13.33;;;5.03;;
62798;SDS011;48842;51.046;13.796;2022-10-12T08:00:52;9.13;;;4.57;;
62798;SDS011;48842;51.046;13.796;2022-10-12T08:03:18;8.27;;;4.60;;
62798;SDS011;48842;51.046;13.796;2022-10-12T08:05:43;14.23;;;4.60;;
62798;SDS011;48842;51.046;13.796;2022-10-12T08:08:09;9.20;;;5.43;;
62798;SDS011;48842;51.046;13.796;2022-10-12T08:10:34;12.13;;;5.23;;
62798;SDS011;48842;51.046;13.796;2022-10-12T08:13:00;9.20;;;4.13;;
62798;SDS011;48842;51.046;13.796;2022-10-12T08:15:25;13.70;;;4.90;;
62798;SDS011;48842;51.046;13.796;2022-10-12T08:17:51;7.53;;;5.07;;
62798;SDS011;48842;51.046;13.796;2022-10-12T08:20:16;10.20;;;4.70;;
62798;SDS011;48842;51.046;13.796;2022-10-12T08:22:41;10.80;;;4.90;;
62798;SDS011;48842;51.046;13.796;2022-10-12T08:25:06;15.90;;;5.53;;
62798;SDS011;48842;51.046;13.796;2022-10-12T08:27:32;16.70;;;5.30;;
62798;SDS011;48842;51.046;13.796;2022-10-12T08:29:57;7.30;;;4.30;;
62798;SDS011;48842;51.046;13.796;2022-10-12T08:32:22;12.40;;;4.33;;
62798;SDS011;48842;51.046;13.796;2022-10-12T08:34:49;13.40;;;4.60;;
62798;SDS011;48842;51.046;13.796;2022-10-12T08:37:14;14.77;;;5.17;;
62798;SDS011;48842;51.046;13.796;2022-10-12T08:39:39;11.63;;;4.90;;
62798;SDS011;48842;51.046;13.796;2022-10-12T08:42:12;12.07;;;5.30;;
62798;SDS011;48842;51.046;13.796;2022-10-12T08:47:47;16.50;;;4.00;;
62798;SDS011;48842;51.046;13.796;2022-10-12T08:50:23;8.40;;;4.20;;
62798;SDS011;48842;51.046;13.796;2022-10-12T08:53:04;9.80;;;4.20;;
62798;SDS011;48842;51.046;13.796;2022-10-12T08:55:40;19.57;;;4.87;;
62798;SDS011;48842;51.046;13.796;2022-10-12T08:58:13;7.53;;;3.87;;
62798;SDS011;48842;51.046;13.796;2022-10-12T09:00:40;7.80;;;4.50;;
62798;SDS011;48842;51.046;13.796;2022-10-12T09:03:16;9.00;;;4.40;;
62798;SDS011;48842;51.046;13.796;2022-10-12T09:05:53;8.50;;;5.27;;
62798;SDS011;48842;51.046;13.796;2022-10-12T09:08:49;7.87;;;4.70;;
62798;SDS011;48842;51.046;13.796;2022-10-12T09:14:32;11.53;;;4.77;;
62798;SDS011;48842;51.046;13.796;2022-10-12T09:17:01;10.30;;;4.37;;
62798;SDS011;48842;51.046;13.796;2022-10-12T09:19:36;10.73;;;4.17;;
62798;SDS011;48842;51.046;13.796;2022-10-12T09:22:04;9.60;;;4.60;;
62798;SDS011;48842;51.046;13.796;2022-10-12T09:24:41;13.43;;;4.50;;
62798;SDS011;48842;51.046;13.796;2022-10-12T09:27:12;12.13;;;3.90;;
62798;SDS011;48842;51.046;13.796;2022-10-12T09:29:39;18.63;;;4.67;;
62798;SDS011;48842;51.046;13.796;2022-10-12T09:35:08;15.40;;;4.87;;
62798;SDS011;48842;51.046;13.796;2022-10-12T09:37:36;13.57;;;4.53;;
62798;SDS011;48842;51.046;13.796;2022-10-12T09:40:02;18.20;;;4.87;;
62798;SDS011;48842;51.046;13.796;2022-10-12T09:42:28;11.70;;;5.10;;
62798;SDS011;48842;51.046;13.796;2022-10-12T09:45:36;8.63;;;5.20;;
62798;SDS011;48842;51.046;13.796;2022-10-12T09:48:06;15.07;;;4.50;;
62798;SDS011;48842;51.046;13.796;2022-10-12T09:53:18;10.27;;;4.93;;
62798;SDS011;48842;51.046;13.796;2022-10-12T09:55:59;15.70;;;5.50;;
62798;SDS011;48842;51.046;13.796;2022-10-12T09:58:27;10.40;;;4.30;;
62798;SDS011;48842;51.046;13.796;2022-10-12T10:01:10;11.40;;;3.73;;
62798;SDS011;48842;51.046;13.796;2022-10-12T10:03:40;11.53;;;4.07;;
62798;SDS011;48842;51.046;13.796;2022-10-12T10:06:05;9.13;;;4.10;;
62798;SDS011;48842;51.046;13.796;2022-10-12T10:08:38;9.93;;;3.30;;
62798;SDS011;48842;51.046;13.796;2022-10-12T10:11:05;9.83;;;3.90;;
62798;SDS011;48842;51.046;13.796;2022-10-12T10:13:38;16.77;;;4.77;;
62798;SDS011;48842;51.046;13.796;2022-10-12T10:16:11;9.10;;;3.90;;
62798;SDS011;48842;51.046;13.796;2022-10-12T10:21:13;10.43;;;3.30;;
62798;SDS011;48842;51.046;13.796;2022-10-12T10:23:56;8.27;;;3.20;;
62798;SDS011;48842;51.046;13.796;2022-10-12T10:26:23;12.03;;;2.90;;
62798;SDS011;48842;51.046;13.796;2022-10-12T10:28:54;6.60;;;3.17;;
62798;SDS011;48842;51.046;13.796;2022-10-12T10:31:23;7.37;;;3.47;;
62798;SDS011;48842;51.046;13.796;2022-10-12T10:36:55;11.87;;;3.27;;
62798;SDS011;48842;51.046;13.796;2022-10-12T10:39:22;14.03;;;3.57;;
62798;SDS011;48842;51.046;13.796;2022-10-12T10:41:50;7.50;;;3.30;;
62798;SDS011;48842;51.046;13.796;2022-10-12T10:44:19;4.83;;;2.87;;
62798;SDS011;48842;51.046;13.796;2022-10-12T10:46:49;8.33;;;3.70;;
62798;SDS011;48842;51.046;13.796;2022-10-12T10:49:27;8.40;;;3.33;;
62798;SDS011;48842;51.046;13.796;2022-10-12T10:52:05;10.23;;;4.53;;
62798;SDS011;48842;51.046;13.796;2022-10-12T10:54:42;9.73;;;3.50;;
62798;SDS011;48842;51.046;13.796;2022-10-12T10:57:17;7.90;;;3.60;;
62798;SDS011;48842;51.046;13.796;2022-10-12T10:59:47;7.97;;;3.50;;
62798;SDS011;48842;51.046;13.796;2022-10-12T11:02:20;6.60;;;3.30;;
62798;SDS011;48842;51.046;13.796;2022-10-12T11:05:38;11.30;;;4.27;;
62798;SDS011;48842;51.046;13.796;2022-10-12T11:07:45;10.07;;;3.57;;
62798;SDS011;48842;51.046;13.796;2022-10-12T11:10:16;11.70;;;4.00;;
62798;SDS011;48842;51.046;13.796;2022-10-12T11:12:47;6.57;;;3.80;;
62798;SDS011;48842;51.046;13.796;2022-10-12T11:17:45;9.13;;;3.33;;
62798;SDS011;48842;51.046;13.796;2022-10-12T11:23:08;8.73;;;3.67;;
62798;SDS011;48842;51.046;13.796;2022-10-12T11:28:30;9.97;;;3.57;;
62798;SDS011;48842;51.046;13.796;2022-10-12T11:30:57;7.60;;;3.23;;
62798;SDS011;48842;51.046;13.796;2022-10-12T11:33:25;5.33;;;3.50;;
62798;SDS011;48842;51.046;13.796;2022-10-12T11:35:54;9.70;;;3.63;;
62798;SDS011;48842;51.046;13.796;2022-10-12T11:44:21;9.30;;;2.90;;
62798;SDS011;48842;51.046;13.796;2022-10-12T11:46:55;8.37;;;3.30;;
62798;SDS011;48842;51.046;13.796;2022-10-12T11:49:26;16.53;;;3.97;;
62798;SDS011;48842;51.046;13.796;2022-10-12T11:51:55;11.20;;;3.20;;
62798;SDS011;48842;51.046;13.796;2022-10-12T11:54:30;5.20;;;2.87;;
62798;SDS011;48842;51.046;13.796;2022-10-12T11:57:07;10.73;;;3.40;;
62798;SDS011;48842;51.046;13.796;2022-10-12T11:59:44;8.80;;;3.50;;
62798;SDS011;48842;51.046;13.796;2022-10-12T12:02:19;7.93;;;2.37;;
62798;SDS011;48842;51.046;13.796;2022-10-12T12:04:51;7.60;;;3.63;;
62798;SDS011;48842;51.046;13.796;2022-10-12T12:10:00;10.30;;;3.53;;
62798;SDS011;48842;51.046;13.796;2022-10-12T12:12:26;11.37;;;3.37;;
62798;SDS011;48842;51.046;13.796;2022-10-12T12:19:44;4.20;;;3.30;;
62798;SDS011;48842;51.046;13.796;2022-10-12T12:22:14;11.90;;;3.20;;
62798;SDS011;48842;51.046;13.796;2022-10-12T12:24:39;9.80;;;3.67;;
62798;SDS011;48842;51.046;13.796;2022-10-12T12:27:20;9.53;;;3.13;;
62798;SDS011;48842;51.046;13.796;2022-10-12T12:29:50;12.33;;;3.43;;
62798;SDS011;48842;51.046;13.796;2022-10-12T12:32:17;9.73;;;3.57;;
62798;SDS011;48842;51.046;13.796;2022-10-12T12:34:47;6.90;;;3.10;;
62798;SDS011;48842;51.046;13.796;2022-10-12T12:37:19;9.57;;;2.97;;
62798;SDS011;48842;51.046;13.796;2022-10-12T12:39:50;10.70;;;3.03;;
62798;SDS011;48842;51.046;13.796;2022-10-12T12:42:22;6.77;;;3.03;;
62798;SDS011;48842;51.046;13.796;2022-10-12T12:44:49;8.03;;;3.10;;
62798;SDS011;48842;51.046;13.796;2022-10-12T12:47:15;6.97;;;3.43;;
62798;SDS011;48842;51.046;13.796;2022-10-12T12:49:51;7.67;;;3.07;;
62798;SDS011;48842;51.046;13.796;2022-10-12T13:00:44;8.87;;;3.07;;
62798;SDS011;48842;51.046;13.796;2022-10-12T13:03:37;9.57;;;3.33;;
62798;SDS011;48842;51.046;13.796;2022-10-12T13:15:38;8.23;;;3.10;;
62798;SDS011;48842;51.046;13.796;2022-10-12T13:21:30;11.73;;;3.13;;
62798;SDS011;48842;51.046;13.796;2022-10-12T13:26:50;10.87;;;3.20;;
62798;SDS011;48842;51.046;13.796;2022-10-12T13:29:25;5.60;;;2.60;;
62798;SDS011;48842;51.046;13.796;2022-10-12T13:32:16;11.03;;;3.87;;
62798;SDS011;48842;51.046;13.796;2022-10-12T13:34:50;8.33;;;2.83;;
62798;SDS011;48842;51.046;13.796;2022-10-12T13:37:19;8.80;;;3.30;;
62798;SDS011;48842;51.046;13.796;2022-10-12T13:39:44;8.93;;;3.20;;
62798;SDS011;48842;51.046;13.796;2022-10-12T13:42:12;9.47;;;3.20;;
62798;SDS011;48842;51.046;13.796;2022-10-12T13:44:41;7.33;;;3.00;;
62798;SDS011;48842;51.046;13.796;2022-10-12T13:47:26;16.43;;;4.10;;
62798;SDS011;48842;51.046;13.796;2022-10-12T13:49:54;8.97;;;2.73;;
62798;SDS011;48842;51.046;13.796;2022-10-12T13:52:25;13.90;;;4.70;;
62798;SDS011;48842;51.046;13.796;2022-10-12T13:54:53;9.53;;;3.07;;
62798;SDS011;48842;51.046;13.796;2022-10-12T13:57:31;7.70;;;3.20;;
62798;SDS011;48842;51.046;13.796;2022-10-12T14:00:04;8.17;;;3.57;;
62798;SDS011;48842;51.046;13.796;2022-10-12T14:02:33;16.07;;;3.70;;
62798;SDS011;48842;51.046;13.796;2022-10-12T14:05:00;7.13;;;3.87;;
62798;SDS011;48842;51.046;13.796;2022-10-12T14:07:31;8.40;;;3.63;;
62798;SDS011;48842;51.046;13.796;2022-10-12T14:10:00;11.50;;;4.60;;
62798;SDS011;48842;51.046;13.796;2022-10-12T14:12:30;7.20;;;3.27;;
62798;SDS011;48842;51.046;13.796;2022-10-12T14:14:56;11.00;;;3.83;;
62798;SDS011;48842;51.046;13.796;2022-10-12T14:17:23;14.13;;;4.63;;
62798;SDS011;48842;51.046;13.796;2022-10-12T14:19:49;7.50;;;3.63;;
62798;SDS011;48842;51.046;13.796;2022-10-12T14:22:27;13.53;;;3.00;;
62798;SDS011;48842;51.046;13.796;2022-10-12T14:25:07;8.80;;;4.27;;
62798;SDS011;48842;51.046;13.796;2022-10-12T14:27:32;11.50;;;4.20;;
62798;SDS011;48842;51.046;13.796;2022-10-12T14:30:20;7.77;;;3.50;;
62798;SDS011;48842;51.046;13.796;2022-10-12T14:32:49;8.77;;;3.67;;
62798;SDS011;48842;51.046;13.796;2022-10-12T14:37:43;12.57;;;4.40;;
62798;SDS011;48842;51.046;13.796;2022-10-12T14:40:32;9.73;;;3.83;;
62798;SDS011;48842;51.046;13.796;2022-10-12T14:43:19;12.47;;;4.20;;
62798;SDS011;48842;51.046;13.796;2022-10-12T14:45:47;16.80;;;4.30;;
62798;SDS011;48842;51.046;13.796;2022-10-12T14:48:15;14.10;;;3.77;;
62798;SDS011;48842;51.046;13.796;2022-10-12T14:50:43;7.80;;;4.20;;
62798;SDS011;48842;51.046;13.796;2022-10-12T14:53:09;9.70;;;4.50;;
62798;SDS011;48842;51.046;13.796;2022-10-12T14:55:36;10.20;;;4.40;;
62798;SDS011;48842;51.046;13.796;2022-10-12T14:58:02;13.63;;;5.80;;
62798;SDS011;48842;51.046;13.796;2022-10-12T15:00:32;10.13;;;4.40;;
62798;SDS011;48842;51.046;13.796;2022-10-12T15:02:59;12.33;;;4.47;;
62798;SDS011;48842;51.046;13.796;2022-10-12T15:05:25;13.20;;;4.53;;
62798;SDS011;48842;51.046;13.796;2022-10-12T15:07:52;7.20;;;4.00;;
62798;SDS011;48842;51.046;13.796;2022-10-12T15:10:19;6.70;;;4.10;;
62798;SDS011;48842;51.046;13.796;2022-10-12T15:12:46;10.90;;;5.00;;
62798;SDS011;48842;51.046;13.796;2022-10-12T15:17:37;11.93;;;5.40;;
62798;SDS011;48842;51.046;13.796;2022-10-12T15:20:03;6.23;;;4.13;;
62798;SDS011;48842;51.046;13.796;2022-10-12T15:22:28;9.13;;;4.33;;
62798;SDS011;48842;51.046;13.796;2022-10-12T15:24:54;9.23;;;3.93;;
62798;SDS011;48842;51.046;13.796;2022-10-12T15:27:19;14.03;;;5.10;;
62798;SDS011;48842;51.046;13.796;2022-10-12T15:29:45;14.07;;;5.20;;
62798;SDS011;48842;51.046;13.796;2022-10-12T15:32:13;12.57;;;4.67;;
62798;SDS011;48842;51.046;13.796;2022-10-12T15:34:40;9.50;;;4.40;;
62798;SDS011;48842;51.046;13.796;2022-10-12T15:37:06;10.67;;;4.47;;
62798;SDS011;48842;51.046;13.796;2022-10-12T15:39:31;13.47;;;5.30;;
62798;SDS011;48842;51.046;13.796;2022-10-12T15:41:57;18.20;;;4.77;;
62798;SDS011;48842;51.046;13.796;2022-10-12T15:44:22;14.83;;;5.33;;
62798;SDS011;48842;51.046;13.796;2022-10-12T15:46:50;6.07;;;5.17;;
62798;SDS011;48842;51.046;13.796;2022-10-12T15:49:16;25.87;;;5.23;;
62798;SDS011;48842;51.046;13.796;2022-10-12T15:51:45;8.80;;;5.33;;
62798;SDS011;48842;51.046;13.796;2022-10-12T15:54:12;22.90;;;5.93;;
62798;SDS011;48842;51.046;13.796;2022-10-12T15:56:38;16.37;;;5.70;;
62798;SDS011;48842;51.046;13.796;2022-10-12T15:59:03;11.33;;;4.87;;
62798;SDS011;48842;51.046;13.796;2022-10-12T16:01:29;9.90;;;5.10;;